KNMI Weerbulletins

Hier vind u de KMNI verwachtingen en de waarnemingen

Bron: KNMI website
Laatste update op 19-09-2020 om 13:44
ZCZC
FBNL50 EHDB 191107
WEERBULLETIN VOOR DE LUCHTVAART
.
GELDIG 191200/191800 UTC
.
SITUATIE: TUSSEN HOGE DRUK BOVEN DE NOORDELIJKE NOORDZEE EN LAGE DRUK
BOVEN DE GOLF VAN BISKAJE VOERT EEN OOSTELIJKE STROMING CONTINENTAAL
POLAIRE LUCHT AAN. DE AANGEVOERDE LUCHT IS TOT 16 UTC ONSTABIEL VAN
OPBOUW TOT 3000 VT, DAARNA VORMT ZICH GELEIDELIJK EEN GRONDINVERSIE.
.
SIGNIFICANT WEER: GEEN.
.
WIND: OOST TOT NOORDOOST. LANDINWAARTS 7-12 KN, IN DE KUSTGEBIEDEN EN
BOVEN HET IJSSELMEER 12-17 KN EN IN HET WADDENGEBIED 17-22 KN. IN DE
TWEEDE HELFT VAN DE PERIODE LANDINWAARTS ENKELE KN AFNEMEND.
.
BEWOLKING: GEEN SIGNIFICANTE BEWOLKING.
.
ZICHT: MEER DAN 10 KM.
.
NULGRADEN NIVEAU: BOVEN FL100.
.
HOOGTEWINDEN EN TEMPERATUREN:
       12 UTC:    18 UTC:
0500VT 090/10 +18 060/15 +19
1500VT 090/15 +15 090/20 +19
3000VT 140/15 +16 130/15 +16
FL 050 270/05 +15 260/05 +14
FL 100 150/05 +06 150/05 +05
.
.
THERMIEK: MATIG, DROOG. UITDOVEND NA 16 UTC.
.
MAX. TEMPERATUUR: VAN 19 GRADEN CELSIUS OP DE WADDENEILANDEN TOT 26
LOKAAL IN HET ZUIDEN.
.
VOORUITZICHTEN VOOR DE PERIODE VAN 191800/200000: GEEN SIGNIFICANTE
VERANDERINGEN.
.
DAGLICHTPERIODE: 05.07 TOT 18.00 UTC.=
NNNN
Bron: KNMI website
Laatste update op 19-09-2020 om 13:44
ZCZC
FT190500 EHEH     EINDHOVEN/EINDHOVEN   NLD   22 m.
TAF EHEH 190500Z 1906/2012 07007KT CAVOK=
ZCZC
FC190900 EHGR     GILZE-RIJEN/GILZE-RIJEN   NLD   14 m.
TAF EHGR 190900Z NIL=
ZCZC
FC190900 EHKD     DE KOOY/DE KOOY   NLD   1 m.
TAF EHKD 190808Z 1909/1921 08012KT CAVOK=
ZCZC
FC190900 EHLW     LEEUWARDEN/LEEUWARDEN   NLD   1 m.
TAF EHLW 190810Z 1909/1921 07011KT CAVOK=
ZCZC
FC190900 EHVK     VOLKEL/VOLKEL   NLD   21 m.
TAF EHVK 190810Z 1909/1921 07009KT CAVOK=
ZCZC
FC190900 EHWO     WOENSDRECHT/WOENSDRECHT   NLD   19 m.
TAF EHWO 190900Z NIL=
ZCZC
FT191100 EHAM     AMSTERDAM/SCHIPHOL   NLD   -3 m.
TAF EHAM 191051Z 1912/2018 07011KT CAVOK=
ZCZC
FT191100 EHBK     MAASTRICHT/MAASTRICHT-AACHEN   NLD   114 m.
TAF EHBK 191103Z 1912/2018 07007KT CAVOK=
ZCZC
FT191100 EHGG     GRONINGEN/EELDE   NLD   5 m.
TAF EHGG 191103Z 1912/2018 08009KT CAVOK=
ZCZC
FT191100 EHLE     LELYSTAD/LELYSTAD   NLD   -3 m.
TAF EHLE 191046Z 1912/2018 07010KT CAVOK=
ZCZC
FT191100 EHRD     ROTTERDAM/THE HAGUE AIRPORT   NLD   -5 m.
TAF EHRD 191046Z 1912/2018 07009KT CAVOK=
Bron: KNMI website
Laatste update op 19-09-2020 om 13:44
ZCZC
SA191055 EHFS     VLISSINGEN AWS   NLD   8 m.
METAR EHFS 191055Z AUTO 07010KT 040V100 9999 NCD 20/10 Q1017=
ZCZC
SA191055 EHSG     BSA   NLD   43 m.
METAR EHSG 191055Z AUTO 07016KT 030V130 //// // NCD 18/11 Q1017 RE//=
ZCZC
SA191125 EHKD     DE KOOY/DE KOOY   NLD   1 m.
METAR EHKD 191125Z AUTO 05015KT 9999 NCD 18/11 Q1020 BLU=
ZCZC
SA191125 EHFD     F3-FB-1   NLD   50 m.
METAR EHFD 191125Z AUTO /////KT 9999 NSC 16/11 Q1024=
ZCZC
SA191125 EHAM     AMSTERDAM/SCHIPHOL   NLD   -3 m.
METAR EHAM 191125Z 06011KT 030V090 CAVOK 19/10 Q1018 NOSIG=
ZCZC
SA191125 EHVL     VLIELAND   NLD   10 m.
METAR EHVL 191125Z AUTO 07018KT 9999 NCD 17/10 Q1020 BLU=
ZCZC
SA191125 EHJR     K13-A   NLD   37 m.
METAR EHJR 191125Z AUTO 00000KT //// // ///////// 17/11 Q1021 RE//
W17/H15=
ZCZC
SA191125 EHLE     LELYSTAD/LELYSTAD   NLD   -3 m.
METAR EHLE 191125Z AUTO 07009KT 040V120 9999 NCD 19/10 Q1019 NOSIG=
ZCZC
SA191125 EHLW     LEEUWARDEN/LEEUWARDEN   NLD   1 m.
METAR EHLW 191125Z AUTO 08012KT 350V130 9999 NCD 19/08 Q1021 BLU=
ZCZC
SA191125 EHDL     ARNHEM/DEELEN   NLD   48 m.
METAR EHDL 191125Z AUTO 06009KT 350V160 9999 NCD 21/08 Q1018 BLU=
ZCZC
SA191125 EHGG     GRONINGEN/EELDE   NLD   5 m.
METAR EHGG 191125Z AUTO 08010KT 040V120 9999 NSC 20/07 Q1021 NOSIG=
ZCZC
SA191125 EHSC     LICHTEILAND GOEREE   NLD   22 m.
METAR EHSC 191125Z AUTO 06016KT 9999 ///////// 17/11 Q1017 W19/H9=
ZCZC
SA191125 EHSA     EURO PLATFORM   NLD   19 m.
METAR EHSA 191125Z AUTO 04019KT 9999 ///////// 17/11 Q1018 W17/H12=
ZCZC
SA191125 EHWO     WOENSDRECHT/WOENSDRECHT   NLD   19 m.
METAR EHWO 191125Z AUTO 07010KT 050V120 9999 NCD 22/09 Q1017 BLU=
ZCZC
SA191125 EHRD     ROTTERDAM/THE HAGUE AIRPORT   NLD   -5 m.
METAR EHRD 191125Z AUTO 06011KT 9999 NCD 21/10 Q1017 NOSIG=
ZCZC
SA191125 EHGR     GILZE-RIJEN/GILZE-RIJEN   NLD   14 m.
METAR EHGR 191125Z AUTO 09008KT 030V140 9999 NCD 23/08 Q1017 BLU=
ZCZC
SA191125 EHEH     EINDHOVEN/EINDHOVEN   NLD   22 m.
METAR EHEH 191125Z AUTO 08008KT 030V140 9999 NCD 23/08 Q1017
BLU NOSIG=
ZCZC
SA191125 EHVK     VOLKEL/VOLKEL   NLD   21 m.
METAR EHVK 191125Z AUTO 10009KT 050V140 9999 NCD 23/07 Q1018 BLU=
ZCZC
SA191125 EHBK     MAASTRICHT/MAASTRICHT-AACHEN   NLD   114 m.
METAR EHBK 191125Z AUTO 03005KT 350V070 9999 NCD 24/10 Q1017 NOSIG=
ZCZC
SA191125 EHFZ     F16-A   NLD   43 m.
METAR EHFZ 191125Z NIL=
ZCZC
SA191125 EHKV     K14-FA-1C   NLD   41 m.
METAR EHKV 191125Z AUTO 07023KT 9999 NCD 17/12 Q1021=
ZCZC
SA191125 EHMG     L9-FF-1   NLD   44 m.
METAR EHMG 191125Z AUTO 07029KT 9999 NCD 18/09 Q1022=
ZCZC
SA191125 EHMA     AWG-1   NLD   40 m.
METAR EHMA 191125Z AUTO 08015KT 360V160 9999 NSC 17/09 Q1021=
ZCZC
SA191125 EHDV     D15-FA-1   NLD   42 m.
METAR EHDV 191125Z AUTO 06020KT 9999 NCD 16/11 Q1023=
ZCZC
SA191125 EHAK     A12-CPP   NLD   48 m.
METAR EHAK 191125Z AUTO 07018KT 9999 SCT007/// BKN009/// 14/12 Q1025=
ZCZC
SA191125 EHQE     HOORN-A   NLD   50 m.
METAR EHQE 191125Z AUTO 02020KT 9999 NCD 16/10 Q1019=
ZCZC
SA191125 EHJA     J6-A   NLD   45 m.
METAR EHJA 191125Z AUTO 05024KT 9999 NCD 17/13 Q1022=
ZCZC
SA191125 EHPG     P11-B   NLD   41 m.
METAR EHPG 191125Z AUTO 05022KT 9999 NCD 17/11 Q1018=
ZCZC
SA191125 EHHW     BUITENGAATS/BG-OHVS2      42 m.
METAR EHHW 191125Z AUTO 10021KT 020V180 9999 NSC 17/09 Q1023=